Huvudsida
METAR-TAF:

METAR-TAF

Flygplatser :

Trieste / Ronchi dei Legionari, Italien

latitud: 45-49N, longitud: 013-29E, höjd: 12 m

Aktuellt väderrapport

Denna rapport gjordes för 16 minuter sedan, klockan 12:50 UTC
Vind 1 kt varierande vindriktning
Temperatur 10°C
Fuktighet 82%
Tryck 1019 hPa
Sikt: 8000 m
Få moln på en höjd av 1500 ft
Brutna moln på en höjd av 3000 ft

METAR: LIPQ 081250Z VRB01KT 8000 FEW015 BKN030 10/07 Q1019

Tid: 14:06 (13:06 UTC)

Väderprognos

Denna rapport gjordes för 2 timmar och 6 minuter sedan, klockan 11:00 UTC
Prognos gäller från 08 kl. 12 UTC till 09 kl. 12 UTC
Vind 4 kt varierande vindriktning
Sikt: 8000 m
Brutna moln på en höjd av 3000 ft
Blir
från 08 kl. 18 UTC till 08 kl. 21 UTC
Sikt: 2000 m
Brutna moln på en höjd av 500 ft
fuktdis
Blir
från 09 kl. 08 UTC till 09 kl. 10 UTC
Sikt: 8000 m

TAF: LIPQ 081100Z 0812/0912 VRB04KT 8000 BKN030 BECMG 0818/0821 2000 BR BKN005 BECMG 0908/0910 8000

Aktuella väderrapporter och prognoser från 4000 flygplatser (METAR- och TAF-rapporter).

De tillgängliga stationerna syns som gula och röda prickar på kartan.

För musen över prickarna för att se namnen på stationerna.

Klicka sedan för att få väderrapporter och prognoser.

För att ändra kartan: Klicka på de gröna knapparna med ett svart kors på för att zooma in; den gröna knappen med ett streck på för att zooma ut; eller på de gröna pilarna för angränsande kartor.


METAR-TAF: